Etusivu
METAR-TAF:

METAR-TAF

Lentoasemat :

Caracas, Venezuela

Leveyspiiri: 10-36N, Pituuspiiri: 066-59W, korkeus merenpinnasta: 43 m

Tämänhetkinen sää

Tämä raportti tehtiin 59 minuuttia sitten, kello 19.00 UTC
Tuuli 3 kn idästä
Lämpötila 27°C
Kosteus 66%
Ilmanpaine 1012 hPa
Näkyvyys: 9000 m
Pilvistä 1600 ft:n korkeudessa
heikkoa tihkusadetta

METAR: SVMI 241900Z 09003KT 9000 -DZ OVC016 27/20 Q1012

Aika: 15:59 (19:59 UTC)

Sääennuste

Tämä raportti tehtiin 3 tuntia ja 59 minuuttia sitten, kello 16.00 UTC
Ennuste voimassa 24. päivästä klo 18 UTC - 25. päivään klo 18 UTC
Tuuli 10 kn kaakosta
Näkyvyys 10 km tai enemmän
Hajanaisia pilviä 1600 ft:n korkeudessa
Hajanaisia pilviä 8000 ft:n korkeudessa
Tulossa
24. päivästä klo 18 UTC - 24. päivään klo 22 UTC
Tuuli 5 kn idästä
Näkyvyys: 9000 m
Hajonneita pilviä 2000 ft:n korkeudessa
tihkusadetta

TAF: SVMI 241600Z 2418/2518 14010KT 9999 SCT016 SCT080 TX32/19Z TN23/09Z BECMG 2418/2422 09005KT 9000 DZ BKN020

Säähavainnot ja -ennusteet yli 4000 lentoasemalta (METAR- ja TAF-raportit).

Käytössä olevat sääasemat on merkitty karttaan keltaisilla ja punaisilla pisteillä.

Aseta hiiri pisteen päälle nähdäksesi sääaseman nimen.

Klikkaa sitten nähdäksesi säähavainnot ja -ennusteet.

Kartan vaihtaminen: klikkaa mustalla rastilla varustettuja vihreitä pisteitä, niin voit zoomata sisään; viivalla varustettua vihreää pistettä, niin voit zoomata ulos tai vihreitä nuolia, niin pääset viereisille kartoille.


METAR-TAF: